Time;durP1;ratioP1;P1;durP2;ratioP2;P2;SDS_P1;SDS_P2;PMS_P1;PMS_P2;Temp;Humidity;BMP_temperature;BMP_pressure;BME280_temperature;BME280_humidity;BME280_pressure;Samples;Min_cycle;Max_cycle;Signal;HPM_P1;HPM_P2
2022/11/25 00:01:23;;;;;;;33.48;19.82;;;;;;;5.93;89.43;100371.42;1721240;82;21578;-87
2022/11/25 00:03:50;;;;;;;29.12;20.25;;;;;;;5.90;89.37;100371.56;1728611;82;21482;-88
2022/11/25 00:06:25;;;;;;;30.75;20.60;;;;;;;5.90;89.58;100371.56;1709436;82;20928;-86
2022/11/25 00:08:56;;;;;;;30.60;20.55;;;;;;;5.91;89.53;100374.55;1726755;81;20964;-87
2022/11/25 00:11:22;;;;;;;32.53;21.15;;;;;;;5.91;89.50;100371.94;1721100;80;21083;-87
2022/11/25 00:13:49;;;;;;;33.78;21.75;;;;;;;5.90;89.47;100375.94;1713347;81;21023;-88
2022/11/25 00:16:19;;;;;;;28.73;21.02;;;;;;;5.89;89.55;100375.53;1722649;82;21000;-88
2022/11/25 00:18:50;;;;;;;36.48;23.27;;;;;;;5.90;89.56;100370.73;1721884;82;20975;-88
2022/11/25 00:21:25;;;;;;;37.85;21.45;;;;;;;5.90;89.78;100366.36;1727326;82;21378;-85
2022/11/25 00:23:54;;;;;;;32.78;20.60;;;;;;;5.95;89.73;100367.02;1711021;82;21251;-87
2022/11/25 00:26:21;;;;;;;36.63;21.05;;;;;;;5.98;89.52;100360.83;1714084;82;20912;-87
2022/11/25 00:28:48;;;;;;;37.60;22.15;;;;;;;5.96;89.44;100364.83;1713057;82;20917;-89
2022/11/25 00:31:20;;;;;;;28.75;21.23;;;;;;;5.98;89.55;100368.20;1731695;82;21094;-86
2022/11/25 00:33:47;;;;;;;36.00;23.22;;;;;;;6.00;89.41;100368.11;1716379;82;21404;-90
2022/11/25 00:36:18;;;;;;;33.42;22.75;;;;;;;6.01;89.48;100368.52;1716344;82;21273;-86
2022/11/25 00:38:46;;;;;;;36.73;21.97;;;;;;;6.04;89.49;100371.44;1727847;82;21707;-87
2022/11/25 00:46:44;;;;;;;34.10;21.23;;;;;;;6.07;88.95;100394.71;1717690;82;20903;-88
2022/11/25 00:49:10;;;;;;;35.43;21.80;;;;;;;6.06;88.96;100395.64;1721954;81;21154;-87
2022/11/25 00:51:36;;;;;;;31.40;21.65;;;;;;;6.07;88.97;100396.88;1730736;81;20858;-89
2022/11/25 00:54:05;;;;;;;33.78;21.85;;;;;;;6.06;88.85;100405.59;1715025;82;20936;-87
2022/11/25 00:56:32;;;;;;;32.93;20.57;;;;;;;6.04;88.72;100397.00;1735188;82;21020;-87
2022/11/25 00:58:58;;;;;;;32.95;21.95;;;;;;;6.01;88.72;100394.08;1735460;80;20968;-87
2022/11/25 01:01:25;;;;;;;36.55;20.17;;;;;;;6.03;88.93;100394.48;1735684;80;21145;-88
2022/11/25 01:03:52;;;;;;;36.50;22.27;;;;;;;6.03;88.97;100391.42;1735193;81;20977;-88
2022/11/25 01:06:19;;;;;;;39.67;21.82;;;;;;;6.02;88.84;100384.51;1727267;80;20920;-88
2022/11/25 01:08:45;;;;;;;30.80;22.35;;;;;;;6.03;88.85;100381.48;1726662;80;20908;-87
2022/11/25 01:11:15;;;;;;;30.70;20.65;;;;;;;6.01;88.84;100381.07;1715127;80;20959;-87
2022/11/25 01:13:42;;;;;;;33.00;21.93;;;;;;;6.01;88.83;100379.77;1710638;81;21252;-87
2022/11/25 01:16:12;;;;;;;36.90;21.93;;;;;;;6.02;88.96;100378.00;1716748;82;20949;-88
2022/11/25 01:18:40;;;;;;;29.37;21.42;;;;;;;6.05;88.96;100378.31;1705721;82;21130;-86
2022/11/25 01:21:13;;;;;;;31.80;20.12;;;;;;;6.08;89.06;100380.34;1732821;82;21032;-87
2022/11/25 01:23:41;;;;;;;30.92;20.88;;;;;;;6.09;88.81;100370.77;1713676;83;20868;-88
2022/11/25 01:26:10;;;;;;;27.67;18.50;;;;;;;6.08;88.80;100358.21;1726941;82;21854;-87
2022/11/25 01:28:37;;;;;;;31.77;21.17;;;;;;;6.10;88.74;100362.05;1730670;82;21508;-88
2022/11/25 01:31:07;;;;;;;28.87;19.62;;;;;;;6.05;88.65;100357.06;1732166;82;20938;-87
2022/11/25 01:33:36;;;;;;;29.82;19.90;;;;;;;6.01;88.68;100363.31;1725961;82;21000;-88
2022/11/25 01:36:10;;;;;;;34.15;21.70;;;;;;;5.97;88.73;100363.06;1712426;82;21668;-88
2022/11/25 01:38:37;;;;;;;;;;;;;;;5.96;88.93;100358.32;1729878;82;21791;-88
2022/11/25 01:41:05;;;;;;;32.35;21.65;;;;;;;5.96;89.04;100359.62;1720031;82;20190;-89
2022/11/25 01:43:32;;;;;;;33.40;20.35;;;;;;;5.96;89.11;100367.89;1720268;82;21510;-89
2022/11/25 01:46:21;;;;;;;33.00;20.60;;;;;;;5.97;89.22;100365.66;1716386;82;20880;-87
2022/11/25 01:49:01;;;;;;;28.90;20.95;;;;;;;5.98;89.08;100362.13;1716601;82;20939;-89
2022/11/25 01:51:34;;;;;;;35.90;22.27;;;;;;;5.96;89.00;100363.98;1721321;82;21803;-88
2022/11/25 01:54:02;;;;;;;30.77;21.50;;;;;;;5.91;89.18;100373.70;1723833;82;20862;-87
2022/11/25 01:56:32;;;;;;;32.10;22.07;;;;;;;5.89;89.32;100372.49;1732933;82;20944;-87
2022/11/25 01:58:59;;;;;;;39.48;22.55;;;;;;;5.87;89.39;100370.84;1724200;82;20905;-88
2022/11/25 02:01:25;;;;;;;35.88;24.77;;;;;;;5.86;89.53;100366.11;1732736;82;22504;-87
2022/11/25 02:03:52;;;;;;;30.20;22.17;;;;;;;5.88;89.61;100369.48;1732523;82;21135;-89
2022/11/25 02:06:32;;;;;;;31.95;22.75;;;;;;;5.90;89.48;100375.47;1711181;82;20972;-87
2022/11/25 02:09:06;;;;;;;29.50;21.23;;;;;;;5.90;89.47;100364.22;1714531;82;20882;-87
2022/11/25 02:11:35;;;;;;;29.60;19.85;;;;;;;5.89;89.41;100362.52;1728690;82;21485;-87
2022/11/25 02:14:04;;;;;;;27.90;16.82;;;;;;;5.88;89.45;100360.38;1723964;82;20948;-87
2022/11/25 02:16:31;;;;;;;28.50;18.48;;;;;;;5.89;89.39;100354.70;1721334;82;21277;-86
2022/11/25 02:18:57;;;;;;;32.50;17.92;;;;;;;5.87;89.34;100361.73;1731657;82;20878;-86
2022/11/25 02:21:38;;;;;;;24.63;16.62;;;;;;;5.83;89.33;100367.55;1713695;82;20940;-88
2022/11/25 02:24:16;;;;;;;24.80;15.90;;;;;;;5.84;89.45;100367.92;1729087;82;20995;-87
2022/11/25 02:26:45;;;;;;;27.27;16.55;;;;;;;5.84;89.18;100367.92;1707860;82;21315;-86
2022/11/25 02:29:12;;;;;;;25.10;16.82;;;;;;;5.83;89.22;100368.02;1735758;80;21197;-87
2022/11/25 02:31:38;;;;;;;24.60;16.73;;;;;;;5.83;89.16;100369.32;1731361;81;20850;-86
2022/11/25 02:34:05;;;;;;;24.67;16.48;;;;;;;5.85;89.13;100371.37;1731523;81;20943;-87
2022/11/25 02:36:33;;;;;;;26.93;15.85;;;;;;;5.85;89.01;100375.27;1731795;80;21010;-87
2022/11/25 02:39:00;;;;;;;26.62;15.88;;;;;;;5.85;88.98;100382.64;1719109;80;21043;-86
2022/11/25 02:41:36;;;;;;;25.62;16.27;;;;;;;5.84;88.81;100390.52;1714334;81;21168;-86
2022/11/25 02:44:05;;;;;;;26.07;16.15;;;;;;;5.80;88.85;100389.36;1735516;80;20913;-85
2022/11/25 02:46:33;;;;;;;23.30;15.03;;;;;;;5.79;88.93;100390.72;1716351;81;20920;-86
2022/11/25 02:49:03;;;;;;;25.05;15.95;;;;;;;5.78;88.93;100390.31;1719113;80;21269;-87
2022/11/25 02:51:30;;;;;;;24.70;16.48;;;;;;;5.74;89.01;100387.48;1722987;80;20992;-87
2022/11/25 02:53:59;;;;;;;27.42;17.17;;;;;;;5.74;89.17;100387.48;1732812;80;21107;-86
2022/11/25 02:56:30;;;;;;;26.97;17.20;;;;;;;5.75;89.16;100386.09;1731887;80;20972;-86
2022/11/25 02:58:57;;;;;;;26.07;16.48;;;;;;;5.80;89.26;100394.98;1713996;81;21079;-87
2022/11/25 03:01:25;;;;;;;26.45;17.70;;;;;;;5.82;89.08;100391.88;1729597;81;20922;-87
2022/11/25 03:03:51;;;;;;;25.05;17.20;;;;;;;5.85;88.92;100394.79;1718474;82;21010;-86
2022/11/25 17:48:53;;;;;;;27.25;18.65;;;;;;;6.44;91.68;100638.27;1818383;78;20992;-86
2022/11/25 17:51:22;;;;;;;27.32;19.02;;;;;;;6.52;91.86;100647.55;1829570;77;21032;-89
2022/11/25 17:53:49;;;;;;;22.52;18.07;;;;;;;6.51;91.85;100645.36;1835694;77;21226;-89
2022/11/25 17:56:31;;;;;;;22.65;17.12;;;;;;;6.54;91.97;100650.47;1835689;78;20959;-89
2022/11/25 17:59:04;;;;;;;22.25;16.65;;;;;;;6.55;91.82;100652.61;1835416;77;21031;-90
2022/11/25 18:01:32;;;;;;;23.83;18.05;;;;;;;6.53;91.61;100653.13;1830554;77;21546;-87
2022/11/25 18:04:02;;;;;;;27.07;17.25;;;;;;;6.50;91.60;100654.58;1829134;77;20982;-89
2022/11/25 18:06:29;;;;;;;21.90;16.95;;;;;;;6.49;91.63;100650.25;1828675;78;21083;-87
2022/11/25 18:08:59;;;;;;;29.87;19.87;;;;;;;6.48;91.45;100648.11;1813196;78;21389;-88
2022/11/25 18:11:27;;;;;;;27.15;19.75;;;;;;;6.46;91.50;100649.09;1806493;77;21094;-86
2022/11/25 18:13:54;;;;;;;27.13;18.70;;;;;;;6.48;91.59;100646.81;1821061;77;21034;-88
2022/11/25 18:16:22;;;;;;;21.40;16.12;;;;;;;6.48;91.22;100650.72;1850812;77;20987;-87
2022/11/25 18:18:49;;;;;;;20.95;16.35;;;;;;;6.46;91.10;100645.19;1807893;77;21118;-86
2022/11/25 18:21:15;;;;;;;27.70;17.92;;;;;;;6.46;91.18;100650.40;1807560;77;20959;-87
2022/11/25 18:23:44;;;;;;;28.70;18.00;;;;;;;6.46;91.15;100659.05;1803566;77;21246;-87
2022/11/25 18:26:13;;;;;;;22.93;15.95;;;;;;;6.50;91.05;100663.69;1760992;79;21005;-89
2022/11/25 18:28:39;;;;;;;23.05;16.77;;;;;;;6.51;90.75;100662.77;1754245;80;20973;-89
2022/11/25 18:31:07;;;;;;;22.45;17.40;;;;;;;6.47;90.54;100663.80;1764171;80;21237;-90
2022/11/25 18:33:33;;;;;;;27.00;17.92;;;;;;;6.42;90.57;100662.27;1764832;80;21061;-89
2022/11/25 18:36:00;;;;;;;29.00;18.07;;;;;;;6.41;90.65;100663.16;1761269;80;20970;-89
2022/11/25 18:38:28;;;;;;;24.90;17.32;;;;;;;6.42;90.68;100661.39;1759972;80;20934;-88
2022/11/25 18:40:55;;;;;;;30.00;19.45;;;;;;;6.41;90.56;100666.22;1756873;81;20934;-91
2022/11/25 18:43:24;;;;;;;27.52;18.32;;;;;;;6.39;90.59;100671.48;1735096;81;22598;-86
2022/11/25 18:46:00;;;;;;;30.45;19.98;;;;;;;6.39;90.67;100670.19;1757765;80;20957;-88
2022/11/25 18:48:27;;;;;;;25.55;19.40;;;;;;;6.41;90.54;100675.34;1758643;80;25148;-90
2022/11/25 18:50:58;;;;;;;27.50;19.17;;;;;;;6.41;90.70;100680.55;1759215;80;21040;-88
2022/11/25 18:53:23;;;;;;;27.45;18.90;;;;;;;6.42;90.55;100686.14;1767715;80;21073;-89
2022/11/25 18:55:49;;;;;;;32.67;20.32;;;;;;;6.40;90.53;100695.34;1758404;80;21782;-90
2022/11/25 18:58:23;;;;;;;28.20;20.37;;;;;;;6.40;90.52;100691.86;1760393;80;20878;-88
2022/11/25 19:00:50;;;;;;;31.93;21.17;;;;;;;6.40;90.71;100690.12;1760666;80;20960;-89
2022/11/25 19:03:23;;;;;;;29.42;20.62;;;;;;;6.43;90.63;100701.72;1766278;80;20975;-89
2022/11/25 19:05:52;;;;;;;31.57;20.82;;;;;;;6.46;90.52;100710.31;1757945;80;21060;-88
2022/11/25 19:08:19;;;;;;;25.55;19.05;;;;;;;6.43;90.40;100708.22;1761338;80;21250;-88
2022/11/25 19:10:46;;;;;;;33.20;19.02;;;;;;;6.41;90.48;100717.02;1759522;80;20948;-88
2022/11/25 19:13:20;;;;;;;23.42;16.77;;;;;;;6.38;90.61;100710.18;1760697;80;20927;-88
2022/11/25 19:15:47;;;;;;;29.57;19.05;;;;;;;6.38;90.64;100720.60;1759661;80;21448;-87
2022/11/25 19:18:17;;;;;;;22.65;15.93;;;;;;;6.40;90.85;100720.52;1761467;80;21092;-89
2022/11/25 19:20:44;;;;;;;24.70;16.67;;;;;;;6.39;90.82;100718.37;1761339;80;21234;-88
2022/11/25 19:23:21;;;;;;;27.42;19.65;;;;;;;6.36;90.88;100725.48;1754905;80;20986;-88
2022/11/25 19:25:46;;;;;;;24.90;17.23;;;;;;;6.34;91.15;100718.19;1758770;80;20995;-90
2022/11/25 19:28:13;;;;;;;26.77;17.52;;;;;;;6.34;91.39;100732.05;1757262;80;21035;-88
2022/11/25 19:30:39;;;;;;;25.00;16.65;;;;;;;6.33;91.46;100725.59;1759289;80;20918;-87
2022/11/25 19:33:11;;;;;;;28.05;17.35;;;;;;;6.31;91.78;100725.64;1758327;80;21522;-89
2022/11/25 19:35:38;;;;;;;27.62;19.50;;;;;;;6.29;91.84;100732.70;1760013;80;20999;-88
2022/11/25 19:38:18;;;;;;;26.05;17.12;;;;;;;6.29;92.24;100729.22;1756834;80;21553;-87
2022/11/25 19:40:44;;;;;;;31.27;17.70;;;;;;;6.31;92.43;100726.11;1739459;82;20892;-87
2022/11/25 19:43:11;;;;;;;28.50;17.62;;;;;;;6.31;92.60;100732.16;1740946;81;20888;-87
2022/11/25 19:45:38;;;;;;;26.73;18.07;;;;;;;6.29;92.65;100724.89;1754726;80;21099;-87
2022/11/25 19:48:09;;;;;;;19.98;16.57;;;;;;;6.29;92.99;100726.62;1752060;80;20886;-87
2022/11/25 19:50:37;;;;;;;27.82;20.25;;;;;;;6.28;93.19;100727.08;1756628;80;21072;-87
2022/11/25 19:53:04;;;;;;;26.50;18.90;;;;;;;6.24;93.35;100722.90;1753967;80;21072;-88
2022/11/25 19:55:32;;;;;;;29.82;19.73;;;;;;;6.21;93.64;100725.64;1755032;80;21000;-87
2022/11/25 19:57:58;;;;;;;29.32;18.80;;;;;;;6.20;93.87;100716.11;1758114;80;22332;-89
2022/11/25 20:00:25;;;;;;;28.73;17.80;;;;;;;6.21;94.24;100725.17;1752088;80;20925;-87
2022/11/25 20:02:52;;;;;;;30.68;20.20;;;;;;;6.22;94.29;100725.59;1754796;80;20913;-88
2022/11/25 20:05:31;;;;;;;27.42;19.07;;;;;;;6.21;94.37;100721.27;1751708;80;20949;-86
2022/11/25 20:07:58;;;;;;;24.80;18.82;;;;;;;6.20;94.53;100717.42;1748176;80;21017;-89
2022/11/25 20:10:27;;;;;;;31.05;20.50;;;;;;;6.15;94.59;100725.41;1761250;80;21131;-88
2022/11/25 20:12:54;;;;;;;36.95;21.90;;;;;;;6.10;94.78;100733.88;1757324;80;20897;-87
2022/11/25 20:15:22;;;;;;;32.95;21.02;;;;;;;6.06;95.03;100740.56;1751682;80;20929;-87
2022/11/25 20:17:54;;;;;;;29.98;20.12;;;;;;;6.03;95.43;100732.43;1751265;80;20886;-88
2022/11/25 20:20:32;;;;;;;33.75;21.25;;;;;;;6.01;95.59;100732.48;1747425;80;20902;-88
2022/11/25 20:23:17;;;;;;;29.40;21.93;;;;;;;5.99;95.75;100737.36;1750291;80;21287;-87
2022/11/25 20:25:46;;;;;;;34.60;22.80;;;;;;;5.97;95.97;100741.77;1740292;81;21040;-86
2022/11/25 20:28:25;;;;;;;31.62;23.55;;;;;;;5.94;96.06;100749.67;1763575;80;20894;-88
2022/11/25 20:30:52;;;;;;;31.55;23.12;;;;;;;5.92;96.34;100744.52;1752437;80;21565;-87
2022/11/25 20:33:19;;;;;;;32.75;24.40;;;;;;;5.95;96.56;100740.98;1752321;80;21403;-87
2022/11/25 20:35:48;;;;;;;31.30;21.90;;;;;;;5.96;96.59;100733.13;1750465;80;21146;-88
2022/11/25 20:38:26;;;;;;;31.25;22.40;;;;;;;5.97;96.67;100738.70;1762067;80;20984;-88
2022/11/25 20:40:55;;;;;;;30.27;22.20;;;;;;;5.96;96.62;100740.93;1766432;81;20903;-87
2022/11/25 20:43:38;;;;;;;33.80;22.32;;;;;;;5.98;96.89;100743.45;1761685;80;20925;-87
2022/11/25 20:46:19;;;;;;;35.65;24.02;;;;;;;6.00;96.87;100753.35;1762030;80;22068;-86
2022/11/25 20:48:46;;;;;;;34.45;24.18;;;;;;;5.99;96.94;100760.32;1764062;80;21096;-86
2022/11/25 20:51:17;;;;;;;29.27;22.75;;;;;;;6.03;97.17;100761.52;1747203;81;20942;-84
2022/11/25 20:53:52;;;;;;;29.18;21.85;;;;;;;6.05;97.06;100762.28;1765040;80;21400;-88
2022/11/25 20:56:20;;;;;;;32.90;21.97;;;;;;;6.06;96.88;100770.50;1758717;80;21616;-87
2022/11/25 20:58:47;;;;;;;29.37;22.27;;;;;;;6.05;96.86;100776.59;1763564;80;21128;-87
2022/11/25 21:01:14;;;;;;;30.80;23.70;;;;;;;6.00;96.71;100776.35;1765951;80;21775;-87
2022/11/25 21:03:42;;;;;;;48.17;33.58;;;;;;;5.99;96.98;100779.00;1759349;80;20949;-88
2022/11/25 21:06:28;;;;;;;31.85;21.40;;;;;;;6.00;97.02;100775.48;1762147;81;20929;-88
2022/11/25 21:08:58;;;;;;;34.20;21.55;;;;;;;6.01;97.12;100778.49;1760240;80;20946;-88
2022/11/25 21:11:26;;;;;;;32.28;22.93;;;;;;;5.98;96.92;100792.91;1765418;80;21591;-88
2022/11/25 21:13:53;;;;;;;31.62;23.52;;;;;;;5.96;96.98;100783.04;1757705;80;21769;-87
2022/11/25 21:16:20;;;;;;;34.43;23.15;;;;;;;5.96;97.07;100790.84;1754616;80;20917;-87
2022/11/25 21:18:46;;;;;;;33.50;24.10;;;;;;;5.95;97.16;100789.98;1763042;80;20894;-88
2022/11/25 21:21:26;;;;;;;35.35;24.77;;;;;;;5.97;97.23;100793.83;1761299;80;20909;-89
2022/11/25 21:23:52;;;;;;;37.93;24.40;;;;;;;5.98;97.28;100793.78;1760770;80;20937;-88
2022/11/25 21:26:21;;;;;;;36.42;24.00;;;;;;;6.00;97.29;100789.80;1763718;81;21090;-86
2022/11/25 21:28:49;;;;;;;42.90;28.17;;;;;;;6.01;97.25;100791.52;1765308;80;20945;-88
2022/11/25 21:31:20;;;;;;;42.60;25.82;;;;;;;6.03;97.18;100793.61;1761583;79;20803;-87
2022/11/25 21:33:47;;;;;;;34.27;22.93;;;;;;;6.01;97.07;100789.75;1764357;80;20918;-86
2022/11/25 21:36:19;;;;;;;38.95;24.15;;;;;;;5.98;97.03;100802.89;1760724;80;20897;-87
2022/11/25 21:38:46;;;;;;;40.00;25.35;;;;;;;5.96;96.91;100792.98;1764194;80;21259;-89
2022/11/25 21:41:13;;;;;;;38.73;25.30;;;;;;;5.96;97.18;100798.66;1763173;80;21002;-88
2022/11/25 21:43:45;;;;;;;50.73;26.27;;;;;;;5.96;97.00;100805.16;1754833;80;20972;-86
2022/11/25 21:46:18;;;;;;;40.20;25.52;;;;;;;5.94;97.01;100803.91;1753505;80;21001;-83
2022/11/25 21:48:45;;;;;;;44.40;26.90;;;;;;;5.97;97.11;100808.14;1748816;80;20850;-83
2022/11/25 21:51:14;;;;;;;38.30;24.85;;;;;;;5.97;97.01;100808.14;1757036;81;21873;-89
2022/11/25 21:53:40;;;;;;;41.00;24.82;;;;;;;5.95;96.92;100811.26;1754450;80;21558;-88
2022/11/25 21:56:18;;;;;;;36.75;24.75;;;;;;;5.92;96.84;100812.66;1748866;80;21040;-89
2022/11/25 21:58:45;;;;;;;37.42;24.37;;;;;;;5.90;96.83;100812.70;1748161;80;21389;-89
2022/11/25 22:01:12;;;;;;;42.25;26.55;;;;;;;5.86;96.91;100808.52;1741406;80;20892;-87
2022/11/25 22:03:39;;;;;;;32.20;23.38;;;;;;;5.87;97.20;100806.75;1741377;81;21218;-89
2022/11/25 22:06:28;;;;;;;41.80;25.82;;;;;;;5.87;97.22;100810.23;1761411;80;20842;-88
2022/11/25 22:08:55;;;;;;;35.25;24.50;;;;;;;5.86;97.21;100810.27;1760449;81;20874;-88
2022/11/25 22:11:30;;;;;;;38.70;25.82;;;;;;;5.81;97.12;100819.09;1758105;80;20909;-88
2022/11/25 22:13:57;;;;;;;40.88;26.97;;;;;;;5.76;97.18;100813.68;1757705;80;20870;-88
2022/11/25 22:16:29;;;;;;;39.30;26.35;;;;;;;5.72;97.36;100816.00;1765704;80;21236;-87
2022/11/25 22:18:56;;;;;;;39.05;26.40;;;;;;;5.69;97.52;100824.77;1764205;80;21479;-88
2022/11/25 22:21:22;;;;;;;47.00;29.02;;;;;;;5.66;97.72;100819.66;1763899;80;20875;-87
2022/11/25 22:23:49;;;;;;;45.15;27.82;;;;;;;5.68;98.06;100815.70;1760925;81;20949;-88
2022/11/25 22:26:29;;;;;;;46.20;26.97;;;;;;;5.72;98.30;100812.09;1762664;80;21375;-88
2022/11/25 22:28:55;;;;;;;41.00;27.37;;;;;;;5.75;98.29;100810.66;1765629;80;21129;-89
2022/11/25 22:31:22;;;;;;;47.55;29.18;;;;;;;5.77;98.24;100823.17;1767366;80;20909;-89
2022/11/25 22:33:48;;;;;;;41.37;26.93;;;;;;;5.77;98.27;100817.97;1744846;81;21018;-89
2022/11/25 22:36:34;;;;;;;44.88;29.23;;;;;;;5.76;98.18;100818.42;1765587;80;20928;-88
2022/11/25 22:39:12;;;;;;;40.83;27.45;;;;;;;5.77;98.27;100817.97;1757659;80;20894;-89
2022/11/25 22:41:44;;;;;;;42.83;27.90;;;;;;;5.77;98.24;100816.20;1763879;80;21150;-89
2022/11/25 22:44:22;;;;;;;45.70;28.35;;;;;;;5.77;98.30;100821.41;1760965;80;21508;-87
2022/11/25 22:46:50;;;;;;;44.03;29.20;;;;;;;5.76;98.26;100818.42;1761794;80;20976;-88
2022/11/25 22:49:28;;;;;;;41.20;29.18;;;;;;;5.78;98.39;100824.85;1760981;79;21001;-87
2022/11/25 22:51:54;;;;;;;43.30;28.52;;;;;;;5.77;98.35;100827.08;1765298;81;20910;-87
2022/11/25 22:54:21;;;;;;;45.35;27.82;;;;;;;5.74;98.25;100828.05;1762914;80;21741;-87
2022/11/25 22:56:48;;;;;;;40.15;28.40;;;;;;;5.72;98.45;100829.84;1758680;80;21482;-87
2022/11/25 22:59:14;;;;;;;48.38;30.30;;;;;;;5.74;98.56;100829.80;1764238;80;20933;-88
2022/11/25 23:01:41;;;;;;;44.95;31.65;;;;;;;5.73;98.62;100827.63;1762652;80;21059;-88
2022/11/25 23:04:15;;;;;;;40.63;28.02;;;;;;;5.76;98.83;100836.64;1759464;80;20993;-85
2022/11/25 23:06:42;;;;;;;;;;;;;;;5.78;98.86;100834.84;1764429;80;21083;-86
2022/11/25 23:09:17;;;;;;;36.33;24.90;;;;;;;5.77;98.62;100835.72;1739351;81;20171;-87
2022/11/25 23:11:47;;;;;;;48.33;28.92;;;;;;;5.76;98.58;100833.20;1761336;80;20906;-86
2022/11/25 23:14:14;;;;;;;44.67;29.23;;;;;;;5.73;98.63;100831.98;1761000;80;20948;-86
2022/11/25 23:16:41;;;;;;;37.48;26.70;;;;;;;5.74;98.81;100833.70;1768775;81;20921;-85
2022/11/25 23:19:15;;;;;;;41.65;28.30;;;;;;;5.76;98.94;100839.25;1767032;80;21220;-84
2022/11/25 23:21:44;;;;;;;42.48;26.68;;;;;;;5.77;98.84;100840.09;1754431;80;20929;-87
2022/11/25 23:24:14;;;;;;;37.10;28.45;;;;;;;5.75;98.77;100836.23;1762940;80;21027;-88
2022/11/25 23:26:41;;;;;;;34.48;24.87;;;;;;;5.75;98.94;100841.89;1762012;80;20965;-87
2022/11/25 23:29:07;;;;;;;38.28;25.17;;;;;;;5.76;98.99;100841.01;1764549;80;20985;-88
2022/11/25 23:31:35;;;;;;;39.23;26.15;;;;;;;5.75;98.87;100847.94;1764675;80;21332;-90
2022/11/25 23:34:04;;;;;;;32.90;22.75;;;;;;;5.74;99.00;100844.11;1738727;81;20916;-88
2022/11/25 23:36:38;;;;;;;31.35;24.95;;;;;;;5.75;99.09;100851.00;1768081;80;20980;-87
2022/11/25 23:39:05;;;;;;;;;;;;;;;5.76;99.27;100853.55;1763974;80;20946;-88
2022/11/25 23:41:33;;;;;;;30.90;22.17;;;;;;;5.81;99.47;100856.83;1732734;81;20423;-87
2022/11/25 23:44:14;;;;;;;31.37;22.93;;;;;;;5.83;99.28;100848.98;1733283;81;21157;-88
2022/11/25 23:46:41;;;;;;;27.82;21.95;;;;;;;5.82;99.09;100848.56;1731769;82;20985;-86
2022/11/25 23:49:12;;;;;;;26.68;19.52;;;;;;;5.82;99.16;100855.07;1726941;82;20969;-87
2022/11/25 23:51:39;;;;;;;27.70;20.32;;;;;;;5.82;99.03;100857.67;1738229;82;20977;-87
2022/11/25 23:54:07;;;;;;;25.85;20.40;;;;;;;5.80;99.07;100848.64;1733582;81;20889;-86
2022/11/25 23:56:34;;;;;;;28.00;20.55;;;;;;;5.80;99.08;100854.27;1724768;81;21212;-83
2022/11/25 23:59:00;;;;;;;22.77;18.45;;;;;;;5.80;99.13;100860.35;1728226;81;20896;-88
